createdAt,value
2019-04-21T00:01:00.466Z,9.07
2019-04-21T00:03:35.544Z,8.92
2019-04-21T00:06:18.368Z,9.01
2019-04-21T00:08:57.650Z,8.97
2019-04-21T00:13:46.794Z,8.88
2019-04-21T00:16:11.980Z,8.85
2019-04-21T00:19:08.130Z,8.81
2019-04-21T00:21:39.443Z,8.73
2019-04-21T00:24:23.928Z,8.69
2019-04-21T00:27:17.435Z,8.67
2019-04-21T00:29:40.878Z,8.56
2019-04-21T00:32:02.994Z,8.51
2019-04-21T00:34:19.606Z,8.48
2019-04-21T00:37:01.206Z,8.40
2019-04-21T00:39:49.606Z,8.43
2019-04-21T00:42:14.085Z,8.35
2019-04-21T00:44:38.086Z,8.37
2019-04-21T00:47:13.927Z,8.33
2019-04-21T00:49:53.969Z,8.31
2019-04-21T00:52:56.601Z,8.31
2019-04-21T00:58:00.028Z,8.14
2019-04-21T01:00:30.892Z,8.07
2019-04-21T01:03:06.697Z,8.01
2019-04-21T01:05:38.657Z,8.00
2019-04-21T01:08:04.879Z,7.92
2019-04-21T01:10:28.949Z,7.86
2019-04-21T01:13:09.643Z,7.80
2019-04-21T01:15:47.448Z,7.80
2019-04-21T01:18:16.633Z,7.77
2019-04-21T01:20:23.705Z,7.78
2019-04-21T01:22:53.812Z,7.74
2019-04-21T01:25:34.680Z,7.67
2019-04-21T01:28:13.609Z,7.63
2019-04-21T01:30:48.878Z,7.61
2019-04-21T01:33:21.930Z,7.54
2019-04-21T01:35:48.214Z,7.55
2019-04-21T01:38:32.594Z,7.52
2019-04-21T01:41:00.659Z,7.50
2019-04-21T01:43:27.786Z,7.51
2019-04-21T01:45:56.503Z,7.45
2019-04-21T01:48:27.267Z,7.31
2019-04-21T01:50:55.310Z,7.19
2019-04-21T01:53:48.336Z,7.08
2019-04-21T01:56:24.203Z,7.10
2019-04-21T01:58:46.470Z,7.09
2019-04-21T02:01:30.123Z,7.12
2019-04-21T02:04:15.412Z,7.08
2019-04-21T02:06:45.689Z,7.07
2019-04-21T02:09:02.243Z,7.01
2019-04-21T02:11:35.504Z,7.02
2019-04-21T02:14:11.812Z,7.01
2019-04-21T02:16:40.734Z,6.99
2019-04-21T02:19:04.813Z,6.88
2019-04-21T02:21:36.983Z,6.87
2019-04-21T02:24:23.560Z,6.85
2019-04-21T02:26:47.446Z,6.82
2019-04-21T02:29:21.844Z,6.88
2019-04-21T02:32:01.768Z,6.87
2019-04-21T02:34:37.987Z,6.81
2019-04-21T02:37:17.720Z,6.75
2019-04-21T02:42:05.406Z,6.70
2019-04-21T02:44:42.901Z,6.70
2019-04-21T02:47:12.229Z,6.66
2019-04-21T02:49:56.523Z,6.61
2019-04-21T03:00:00.134Z,6.43
2019-04-21T03:02:35.185Z,6.35
2019-04-21T03:05:21.152Z,6.34
2019-04-21T03:07:55.345Z,6.24
2019-04-21T03:10:25.709Z,6.27
2019-04-21T03:12:56.965Z,6.32
2019-04-21T03:15:31.517Z,6.27
2019-04-21T03:18:00.341Z,6.29
2019-04-21T03:20:36.199Z,6.18
2019-04-21T03:23:08.856Z,6.12
2019-04-21T03:25:43.225Z,6.10
2019-04-21T03:28:11.254Z,6.06
2019-04-21T03:31:12.220Z,6.06
2019-04-21T03:34:02.601Z,5.97
2019-04-21T03:36:12.846Z,5.99
2019-04-21T03:40:39.954Z,6.04
2019-04-21T03:43:20.271Z,5.86
2019-04-21T03:53:24.997Z,5.81
2019-04-21T03:58:39.470Z,5.85
2019-04-21T04:04:29.996Z,5.69
2019-04-21T04:12:12.487Z,5.88
2019-04-21T04:14:44.181Z,5.92
2019-04-21T04:17:16.765Z,5.93
2019-04-21T04:19:44.609Z,5.96
2019-04-21T04:22:27.070Z,6.08
2019-04-21T04:25:07.350Z,6.10
2019-04-21T04:30:04.303Z,6.25
2019-04-21T04:32:28.511Z,6.38
2019-04-21T04:35:14.514Z,6.46
2019-04-21T04:37:45.038Z,6.43
2019-04-21T04:40:10.523Z,6.53
2019-04-21T04:45:17.604Z,6.78
2019-04-21T04:47:46.654Z,6.85
2019-04-21T04:50:09.945Z,6.98
2019-04-21T04:52:58.683Z,7.10
2019-04-21T04:55:19.038Z,7.30
2019-04-21T04:58:04.680Z,7.60
2019-04-21T05:05:29.308Z,7.87
2019-04-21T05:08:16.584Z,7.89
2019-04-21T05:10:38.519Z,7.93
2019-04-21T05:13:02.305Z,7.91
2019-04-21T05:15:37.876Z,8.09
2019-04-21T05:20:37.026Z,8.51
2019-04-21T05:22:58.212Z,8.63
2019-04-21T05:25:30.666Z,8.73
2019-04-21T05:27:56.445Z,8.94
2019-04-21T05:30:45.077Z,9.18
2019-04-21T05:33:19.014Z,9.24
2019-04-21T05:35:52.024Z,9.36
2019-04-21T05:38:39.123Z,9.56
2019-04-21T05:41:00.195Z,9.67
2019-04-21T05:43:39.065Z,9.79
2019-04-21T05:46:13.367Z,9.87
2019-04-21T05:48:54.790Z,10.02
2019-04-21T05:51:22.256Z,10.03
2019-04-21T05:53:56.150Z,10.20
2019-04-21T05:56:30.627Z,10.33
2019-04-21T05:58:58.067Z,10.48
2019-04-21T06:01:50.323Z,10.55
2019-04-21T06:04:12.299Z,10.63
2019-04-21T06:06:43.700Z,10.81
2019-04-21T06:09:08.272Z,10.67
2019-04-21T06:11:40.708Z,10.80
2019-04-21T06:14:14.511Z,10.94
2019-04-21T06:16:54.335Z,11.13
2019-04-21T06:19:15.090Z,11.36
2019-04-21T06:21:45.460Z,11.60
2019-04-21T06:24:18.814Z,11.74
2019-04-21T06:27:04.923Z,11.67
2019-04-21T06:29:25.467Z,11.73
2019-04-21T06:34:41.428Z,12.29
2019-04-21T06:37:21.856Z,12.32
2019-04-21T06:39:52.593Z,12.40
2019-04-21T06:42:09.210Z,12.46
2019-04-21T06:44:54.167Z,12.56
2019-04-21T06:47:26.025Z,12.98
2019-04-21T06:49:45.806Z,13.10
2019-04-21T06:52:42.401Z,13.32
2019-04-21T06:54:56.068Z,13.47
2019-04-21T06:57:21.792Z,13.47
2019-04-21T06:59:51.053Z,13.64
2019-04-21T07:05:03.670Z,14.05
2019-04-21T07:07:33.534Z,14.26
2019-04-21T07:10:09.101Z,14.65
2019-04-21T07:12:28.695Z,14.51
2019-04-21T07:15:03.338Z,14.27
2019-04-21T07:17:32.535Z,14.43
2019-04-21T07:22:43.716Z,15.01
2019-04-21T07:25:16.661Z,14.96
2019-04-21T07:27:47.823Z,15.33
2019-04-21T07:30:23.089Z,14.94
2019-04-21T07:32:55.279Z,15.03
2019-04-21T07:35:31.688Z,15.05
2019-04-21T07:37:52.267Z,15.10
2019-04-21T07:40:17.394Z,15.30
2019-04-21T07:42:51.466Z,15.33
2019-04-21T07:45:22.734Z,15.38
2019-04-21T07:48:03.359Z,15.25
2019-04-21T07:50:38.232Z,15.21
2019-04-21T07:53:36.804Z,15.20
2019-04-21T07:55:41.094Z,15.18
2019-04-21T07:58:26.589Z,15.45
2019-04-21T08:01:07.032Z,15.62
2019-04-21T08:03:34.907Z,15.44
2019-04-21T08:06:05.009Z,15.52
2019-04-21T08:08:34.266Z,15.57
2019-04-21T08:11:07.404Z,15.46
2019-04-21T08:13:44.897Z,15.47
2019-04-21T08:16:17.503Z,15.65
2019-04-21T08:18:46.780Z,15.92
2019-04-21T08:21:19.623Z,15.96
2019-04-21T08:23:48.386Z,15.72
2019-04-21T08:26:13.838Z,15.80
2019-04-21T08:28:53.741Z,15.70
2019-04-21T08:31:34.440Z,15.90
2019-04-21T08:34:01.712Z,15.80
2019-04-21T08:36:27.699Z,15.89
2019-04-21T08:39:01.057Z,15.83
2019-04-21T08:41:31.346Z,15.74
2019-04-21T08:43:56.130Z,15.97
2019-04-21T08:46:38.696Z,16.30
2019-04-21T08:49:08.041Z,16.44
2019-04-21T08:51:39.600Z,16.64
2019-04-21T08:54:15.277Z,16.70
2019-04-21T08:57:06.152Z,16.62
2019-04-21T08:59:40.438Z,16.52
2019-04-21T09:02:16.252Z,16.82
2019-04-21T09:04:50.736Z,16.88
2019-04-21T09:09:55.849Z,17.26
2019-04-21T09:12:22.687Z,17.24
2019-04-21T09:14:54.235Z,17.28
2019-04-21T09:17:22.415Z,17.41
2019-04-21T09:20:04.005Z,17.59
2019-04-21T09:22:30.681Z,17.62
2019-04-21T09:24:55.731Z,17.70
2019-04-21T09:27:30.784Z,17.89
2019-04-21T09:29:52.359Z,17.86
2019-04-21T09:32:23.225Z,17.54
2019-04-21T09:34:52.426Z,17.68
2019-04-21T09:37:32.605Z,17.86
2019-04-21T09:39:55.937Z,17.75
2019-04-21T09:42:33.194Z,17.79
2019-04-21T09:45:00.649Z,17.99
2019-04-21T09:47:36.535Z,18.06
2019-04-21T09:50:01.868Z,18.19
2019-04-21T09:52:39.666Z,18.07
2019-04-21T09:55:10.267Z,17.76
2019-04-21T09:57:43.324Z,18.00
2019-04-21T10:00:15.154Z,18.00
2019-04-21T10:02:51.635Z,18.19
2019-04-21T10:05:12.560Z,18.23
2019-04-21T10:07:44.218Z,18.36
2019-04-21T10:10:15.017Z,18.20
2019-04-21T10:12:45.488Z,18.07
2019-04-21T10:15:16.526Z,18.15
2019-04-21T10:18:00.613Z,18.34
2019-04-21T10:20:30.925Z,18.50
2019-04-21T10:23:00.927Z,18.62
2019-04-21T10:25:30.962Z,18.39
2019-04-21T10:28:01.325Z,18.47
2019-04-21T10:30:31.380Z,18.58
2019-04-21T10:33:01.479Z,18.67
2019-04-21T10:35:32.870Z,18.58
2019-04-21T10:38:14.609Z,18.75
2019-04-21T10:40:37.129Z,18.81
2019-04-21T10:43:09.950Z,18.76
2019-04-21T10:45:39.181Z,18.84
2019-04-21T10:48:10.813Z,18.65
2019-04-21T10:50:41.237Z,18.72
2019-04-21T10:53:13.379Z,18.81
2019-04-21T10:56:00.364Z,18.89
2019-04-21T10:58:18.314Z,18.99
2019-04-21T11:00:52.845Z,19.01
2019-04-21T11:03:42.836Z,19.07
2019-04-21T11:06:14.809Z,19.15
2019-04-21T11:08:48.590Z,19.08
2019-04-21T11:11:16.654Z,19.15
2019-04-21T11:13:46.654Z,19.06
2019-04-21T11:16:17.260Z,19.20
2019-04-21T11:18:48.292Z,19.23
2019-04-21T11:21:18.787Z,19.35
2019-04-21T11:23:50.030Z,19.44
2019-04-21T11:26:20.159Z,19.44
2019-04-21T11:28:50.546Z,19.38
2019-04-21T11:31:20.956Z,19.46
2019-04-21T11:33:51.271Z,19.41
2019-04-21T11:36:21.630Z,19.51
2019-04-21T11:39:22.839Z,19.60
2019-04-21T11:41:41.634Z,19.60
2019-04-21T11:44:12.111Z,19.59
2019-04-21T11:46:42.619Z,19.71
2019-04-21T11:49:12.862Z,19.65
2019-04-21T11:51:42.935Z,19.25
2019-04-21T11:54:13.059Z,19.46
2019-04-21T11:56:43.255Z,19.23
2019-04-21T11:59:13.476Z,19.34
2019-04-21T12:01:43.588Z,19.10
2019-04-21T12:04:13.929Z,19.18
2019-04-21T12:06:47.242Z,19.17
2019-04-21T12:09:16.800Z,19.32
2019-04-21T12:11:47.406Z,19.21
2019-04-21T12:14:18.338Z,19.09
2019-04-21T12:16:49.305Z,19.16
2019-04-21T12:19:20.532Z,19.31
2019-04-21T12:22:02.392Z,19.45
2019-04-21T12:24:24.892Z,19.48
2019-04-21T12:26:56.006Z,19.30
2019-04-21T12:29:26.952Z,19.13
2019-04-21T12:31:59.426Z,19.41
2019-04-21T12:34:30.179Z,19.30
2019-04-21T12:37:01.170Z,19.37
2019-04-21T12:39:32.720Z,19.44
2019-04-21T12:42:04.634Z,19.44
2019-04-21T12:44:34.922Z,19.47
2019-04-21T12:47:05.841Z,19.59
2019-04-21T12:49:36.008Z,19.53
2019-04-21T12:52:06.184Z,19.53
2019-04-21T12:54:37.646Z,19.55
2019-04-21T12:57:07.882Z,19.61
2019-04-21T12:59:39.509Z,19.71
2019-04-21T13:02:09.730Z,19.76
2019-04-21T13:04:40.100Z,19.65
2019-04-21T13:07:10.183Z,19.23
2019-04-21T13:09:40.287Z,19.47
2019-04-21T13:12:11.070Z,19.60
2019-04-21T13:14:42.105Z,19.61
2019-04-21T13:17:13.121Z,19.74
2019-04-21T13:19:43.622Z,19.89
2019-04-21T13:22:14.124Z,19.72
2019-04-21T13:24:44.353Z,19.62
2019-04-21T13:27:15.607Z,19.62
2019-04-21T13:29:46.269Z,19.69
2019-04-21T13:32:16.557Z,19.81
2019-04-21T13:34:47.792Z,19.44
2019-04-21T13:37:19.388Z,19.60
2019-04-21T13:40:13.145Z,19.47
2019-04-21T13:42:36.237Z,19.54
2019-04-21T13:45:00.933Z,19.68
2019-04-21T13:47:30.855Z,19.58
2019-04-21T13:50:02.895Z,19.75
2019-04-21T13:52:33.156Z,19.68
2019-04-21T13:55:03.475Z,19.45
2019-04-21T13:57:34.625Z,19.40
2019-04-21T14:00:09.150Z,19.51
2019-04-21T14:02:40.656Z,19.52
2019-04-21T14:05:13.493Z,19.41
2019-04-21T14:07:44.019Z,19.37
2019-04-21T14:10:16.094Z,19.29
2019-04-21T14:12:46.921Z,19.32
2019-04-21T14:15:20.133Z,19.50
2019-04-21T14:17:50.919Z,19.70
2019-04-21T14:20:21.573Z,19.86
2019-04-21T14:22:51.986Z,19.75
2019-04-21T14:25:22.138Z,19.66
2019-04-21T14:27:53.983Z,19.76
2019-04-21T14:30:24.364Z,19.85
2019-04-21T14:32:54.385Z,19.90
2019-04-21T14:35:25.137Z,19.74
2019-04-21T14:37:56.555Z,19.73
2019-04-21T14:40:29.495Z,19.66
2019-04-21T14:42:58.431Z,19.77
2019-04-21T14:45:34.541Z,19.77
2019-04-21T14:48:09.253Z,19.68
2019-04-21T14:50:42.042Z,19.74
2019-04-21T14:53:16.462Z,19.81
2019-04-21T14:55:46.853Z,19.78
2019-04-21T14:58:17.197Z,19.83
2019-04-21T15:00:59.940Z,19.88
2019-04-21T15:03:30.102Z,19.93
2019-04-21T15:06:01.113Z,19.95
2019-04-21T15:08:31.384Z,19.96
2019-04-21T15:11:01.499Z,19.90
2019-04-21T15:13:32.322Z,19.78
2019-04-21T15:16:02.769Z,19.82
2019-04-21T15:18:32.868Z,19.81
2019-04-21T15:21:03.756Z,19.85
2019-04-21T15:23:34.003Z,19.87
2019-04-21T15:26:04.260Z,19.83
2019-04-21T15:28:36.970Z,19.82
2019-04-21T15:31:05.869Z,19.83
2019-04-21T15:33:36.965Z,19.83
2019-04-21T15:36:07.180Z,19.86
2019-04-21T15:38:38.080Z,19.78
2019-04-21T15:41:10.602Z,19.81
2019-04-21T15:43:40.561Z,19.87
2019-04-21T15:46:11.025Z,19.89
2019-04-21T15:48:41.308Z,19.70
2019-04-21T15:51:11.308Z,19.79
2019-04-21T15:53:43.851Z,19.74
2019-04-21T15:56:17.227Z,19.69
2019-04-21T15:59:01.148Z,19.70
2019-04-21T16:01:36.604Z,19.71
2019-04-21T16:04:08.027Z,19.70
2019-04-21T16:06:39.310Z,19.72
2019-04-21T16:09:14.989Z,19.67
2019-04-21T16:11:42.198Z,19.71
2019-04-21T16:14:12.154Z,19.70
2019-04-21T16:16:43.264Z,19.69
2019-04-21T16:19:14.321Z,19.67
2019-04-21T16:21:46.438Z,19.66
2019-04-21T16:24:16.450Z,19.57
2019-04-21T16:26:46.914Z,19.58
2019-04-21T16:29:17.404Z,19.56
2019-04-21T16:31:48.919Z,19.57
2019-04-21T16:34:19.919Z,19.51
2019-04-21T16:36:50.066Z,19.51
2019-04-21T16:39:20.010Z,19.47
2019-04-21T16:41:50.094Z,19.43
2019-04-21T16:44:20.977Z,19.37
2019-04-21T16:46:51.669Z,19.35
2019-04-21T16:49:22.084Z,19.34
2019-04-21T16:51:54.025Z,19.30
2019-04-21T16:54:26.229Z,19.22
2019-04-21T16:57:15.293Z,19.13
2019-04-21T16:59:48.488Z,19.11
2019-04-21T17:02:18.736Z,19.06
2019-04-21T17:04:48.685Z,19.00
2019-04-21T17:07:19.908Z,18.95
2019-04-21T17:09:50.696Z,18.89
2019-04-21T17:12:22.752Z,18.83
2019-04-21T17:15:08.711Z,18.80
2019-04-21T17:17:47.496Z,18.73
2019-04-21T17:20:11.630Z,18.69
2019-04-21T17:22:28.004Z,18.63
2019-04-21T17:24:58.553Z,18.56
2019-04-21T17:27:31.217Z,18.49
2019-04-21T17:30:04.237Z,18.39
2019-04-21T17:32:40.115Z,18.32
2019-04-21T17:35:12.157Z,18.25
2019-04-21T17:37:45.589Z,18.17
2019-04-21T17:40:26.333Z,18.11
2019-04-21T17:43:12.655Z,18.00
2019-04-21T17:45:44.812Z,17.90
2019-04-21T17:48:34.906Z,17.84
2019-04-21T17:51:21.328Z,17.68
2019-04-21T17:54:13.534Z,17.53
2019-04-21T17:58:22.079Z,17.41
2019-04-21T18:00:28.782Z,17.24
2019-04-21T18:02:53.440Z,17.06
2019-04-21T18:05:31.965Z,16.91
2019-04-21T18:08:07.056Z,16.79
2019-04-21T18:10:45.669Z,16.68
2019-04-21T18:13:41.955Z,16.59
2019-04-21T18:16:25.099Z,16.49
2019-04-21T18:18:50.667Z,16.31
2019-04-21T18:21:24.909Z,16.36
2019-04-21T18:24:07.400Z,16.38
2019-04-21T18:26:40.615Z,16.30
2019-04-21T18:29:18.644Z,16.26
2019-04-21T18:31:57.988Z,16.17
2019-04-21T18:34:44.298Z,16.01
2019-04-21T18:37:27.111Z,15.89
2019-04-21T18:40:03.748Z,15.88
2019-04-21T18:43:38.339Z,15.85
2019-04-21T18:49:00.639Z,15.86
2019-04-21T18:51:58.702Z,15.84
2019-04-21T18:54:41.763Z,15.83
2019-04-21T18:57:17.196Z,15.85
2019-04-21T18:59:47.663Z,15.83
2019-04-21T19:02:22.349Z,15.80
2019-04-21T19:04:59.752Z,15.74
2019-04-21T19:07:48.023Z,15.71
2019-04-21T19:13:19.898Z,15.67
2019-04-21T19:15:30.034Z,15.64
2019-04-21T19:18:32.521Z,15.59
2019-04-21T19:20:50.334Z,15.52
2019-04-21T19:23:04.568Z,15.45
2019-04-21T19:25:42.603Z,15.31
2019-04-21T19:28:16.363Z,15.23
2019-04-21T19:30:57.650Z,15.14
2019-04-21T19:33:28.530Z,15.07
2019-04-21T19:35:45.599Z,15.03
2019-04-21T19:38:30.572Z,14.99
2019-04-21T19:41:10.420Z,14.93
2019-04-21T19:43:45.715Z,14.86
2019-04-21T19:46:19.345Z,14.82
2019-04-21T19:48:59.120Z,14.74
2019-04-21T19:51:18.048Z,14.69
2019-04-21T19:53:48.087Z,14.65
2019-04-21T19:56:11.984Z,14.60
2019-04-21T19:58:47.583Z,14.56
2019-04-21T20:01:21.350Z,14.51
2019-04-21T20:03:57.126Z,14.49
2019-04-21T20:06:43.993Z,14.43
2019-04-21T20:09:19.897Z,14.38
2019-04-21T20:11:44.403Z,14.34
2019-04-21T20:14:44.845Z,14.29
2019-04-21T20:16:53.122Z,14.27
2019-04-21T20:19:15.209Z,14.27
2019-04-21T20:21:45.117Z,14.25
2019-04-21T20:24:24.417Z,14.19
2019-04-21T20:27:02.232Z,14.16
2019-04-21T20:29:56.162Z,14.07
2019-04-21T20:32:36.263Z,14.02
2019-04-21T20:35:07.061Z,13.97
2019-04-21T20:37:31.696Z,13.92
2019-04-21T20:39:58.469Z,13.86
2019-04-21T20:42:40.334Z,13.83
2019-04-21T20:45:28.866Z,13.77
2019-04-21T20:47:34.961Z,13.77
2019-04-21T20:50:17.701Z,13.73
2019-04-21T20:52:53.797Z,13.72
2019-04-21T20:55:20.048Z,13.72
2019-04-21T20:57:53.775Z,13.72
2019-04-21T21:00:32.641Z,13.68
2019-04-21T21:03:15.254Z,13.65
2019-04-21T21:05:37.629Z,13.60
2019-04-21T21:08:21.061Z,13.53
2019-04-21T21:10:49.238Z,13.52
2019-04-21T21:13:30.045Z,13.50
2019-04-21T21:16:09.534Z,13.46
2019-04-21T21:18:38.026Z,13.45
2019-04-21T21:21:06.659Z,13.39
2019-04-21T21:26:15.965Z,13.34
2019-04-21T21:28:39.083Z,13.32
2019-04-21T21:31:13.000Z,13.31
2019-04-21T21:34:08.207Z,13.32
2019-04-21T21:36:27.292Z,13.28
2019-04-21T21:39:01.220Z,13.32
2019-04-21T21:41:26.508Z,13.26
2019-04-21T21:44:01.839Z,13.26
2019-04-21T21:46:41.651Z,13.25
2019-04-21T21:49:07.590Z,13.23
2019-04-21T21:51:44.990Z,13.11
2019-04-21T21:54:03.090Z,13.09
2019-04-21T21:56:36.518Z,13.05
2019-04-21T21:59:16.035Z,12.98
2019-04-21T22:01:46.990Z,12.96
2019-04-21T22:04:20.804Z,12.88
2019-04-21T22:06:55.383Z,12.81
2019-04-21T22:09:18.588Z,12.71
2019-04-21T22:11:53.584Z,12.67
2019-04-21T22:14:25.904Z,12.58
2019-04-21T22:17:10.965Z,12.57
2019-04-21T22:19:48.902Z,12.49
2019-04-21T22:22:15.612Z,12.43
2019-04-21T22:24:43.982Z,12.36
2019-04-21T22:26:59.243Z,12.29
2019-04-21T22:29:37.837Z,12.25
2019-04-21T22:32:09.494Z,12.21
2019-04-21T22:34:38.690Z,12.09
2019-04-21T22:37:21.188Z,12.04
2019-04-21T22:39:56.904Z,12.00
2019-04-21T22:42:17.330Z,11.87
2019-04-21T22:44:40.619Z,11.86
2019-04-21T22:47:16.910Z,11.78
2019-04-21T22:49:42.563Z,11.73
2019-04-21T22:52:18.713Z,11.64
2019-04-21T22:54:46.660Z,11.59
2019-04-21T22:57:19.861Z,11.50
2019-04-21T22:59:55.201Z,11.45
2019-04-21T23:02:25.914Z,11.41
2019-04-21T23:04:57.633Z,11.33
2019-04-21T23:07:25.349Z,11.15
2019-04-21T23:09:55.552Z,11.15
2019-04-21T23:12:30.693Z,11.08
2019-04-21T23:15:04.347Z,11.01
2019-04-21T23:17:50.677Z,10.88
2019-04-21T23:20:25.680Z,10.77
2019-04-21T23:23:00.906Z,10.73
2019-04-21T23:25:25.108Z,10.65
2019-04-21T23:27:56.285Z,10.57
2019-04-21T23:30:33.992Z,10.53
2019-04-21T23:32:51.394Z,10.49
2019-04-21T23:35:21.807Z,10.43
2019-04-21T23:37:55.728Z,10.43
2019-04-21T23:40:21.505Z,10.40
2019-04-21T23:42:49.474Z,10.38
2019-04-21T23:45:27.432Z,10.26
2019-04-21T23:48:01.677Z,10.20
2019-04-21T23:50:34.312Z,10.18
2019-04-21T23:52:55.413Z,10.10
2019-04-21T23:55:25.609Z,10.07
2019-04-21T23:58:06.166Z,10.01
